createdAt,value
2022-12-08T00:00:14.148Z,0.60
2022-12-08T00:03:01.502Z,0.56
2022-12-08T00:05:46.439Z,0.53
2022-12-08T00:08:31.521Z,0.49
2022-12-08T00:10:59.069Z,0.49
2022-12-08T00:13:26.322Z,0.49
2022-12-08T00:15:53.472Z,0.52
2022-12-08T00:18:20.483Z,0.54
2022-12-08T00:20:47.583Z,0.52
2022-12-08T00:23:14.616Z,0.53
2022-12-08T00:25:41.628Z,0.53
2022-12-08T00:28:09.264Z,0.50
2022-12-08T00:30:36.317Z,0.49
2022-12-08T00:33:03.733Z,0.48
2022-12-08T00:35:30.786Z,0.46
2022-12-08T00:38:01.035Z,0.42
2022-12-08T00:40:28.458Z,0.41
2022-12-08T00:42:56.530Z,0.42
2022-12-08T00:45:24.498Z,0.42
2022-12-08T00:47:51.647Z,0.44
2022-12-08T00:50:18.902Z,0.45
2022-12-08T00:52:46.255Z,0.44
2022-12-08T00:55:13.834Z,0.44
2022-12-08T00:57:40.973Z,0.47
2022-12-08T01:00:10.124Z,0.49
2022-12-08T01:02:37.425Z,0.51
2022-12-08T01:05:04.567Z,0.51
2022-12-08T01:07:32.233Z,0.46
2022-12-08T01:09:59.388Z,0.43
2022-12-08T01:12:26.890Z,0.37
2022-12-08T01:14:55.889Z,0.32
2022-12-08T01:17:26.365Z,0.27
2022-12-08T01:19:54.146Z,0.27
2022-12-08T01:22:21.380Z,0.27
2022-12-08T01:24:48.731Z,0.32
2022-12-08T01:27:18.032Z,0.34
2022-12-08T01:29:45.480Z,0.37
2022-12-08T01:32:12.645Z,0.40
2022-12-08T01:34:39.791Z,0.40
2022-12-08T01:37:07.145Z,0.36
2022-12-08T01:39:34.193Z,0.33
2022-12-08T01:42:01.450Z,0.29
2022-12-08T01:45:02.949Z,0.23
2022-12-08T01:47:35.773Z,0.22
2022-12-08T01:50:03.859Z,0.21
2022-12-08T01:52:36.968Z,0.23
2022-12-08T01:55:08.500Z,0.25
2022-12-08T01:57:38.824Z,0.28
2022-12-08T02:00:09.725Z,0.28
2022-12-08T02:02:43.244Z,0.25
2022-12-08T02:05:12.092Z,0.23
2022-12-08T02:07:39.737Z,0.21
2022-12-08T02:10:08.767Z,0.17
2022-12-08T02:12:35.981Z,0.15
2022-12-08T02:15:05.445Z,0.15
2022-12-08T02:17:50.741Z,0.16
2022-12-08T02:20:37.246Z,0.17
2022-12-08T02:23:12.453Z,0.18
2022-12-08T02:25:51.462Z,0.19
2022-12-08T02:28:39.452Z,0.17
2022-12-08T02:31:22.562Z,0.13
2022-12-08T02:34:11.128Z,0.08
2022-12-08T02:36:45.559Z,0.01
2022-12-08T02:39:24.575Z,-0.04
2022-12-08T02:41:58.683Z,-0.07
2022-12-08T02:44:30.996Z,-0.06
2022-12-08T02:47:02.615Z,-0.04
2022-12-08T02:49:33.680Z,0.01
2022-12-08T02:52:29.478Z,0.05
2022-12-08T02:55:00.174Z,0.10
2022-12-08T02:57:36.589Z,0.11
